Map

Track Data

SID SEASON NUMBER BASIN SUBBASIN NAME ISO_TIME NATURE LAT LON WMO_WIND WMO_PRES WMO_AGENCY TRACK_TYPE DIST2LAND LANDFALL IFLAG USA_AGENCY USA_ATCF_ID USA_LAT USA_LON USA_RECORD USA_STATUS USA_WIND USA_PRES USA_SSHS USA_R34_NE USA_R34_SE USA_R34_SW USA_R34_NW USA_R50_NE USA_R50_SE USA_R50_SW USA_R50_NW USA_R64_NE USA_R64_SE USA_R64_SW USA_R64_NW USA_POCI USA_ROCI USA_RMW USA_EYE TOKYO_LAT TOKYO_LON TOKYO_GRADE TOKYO_WIND TOKYO_PRES TOKYO_R50_DIR TOKYO_R50_LONG TOKYO_R50_SHORT TOKYO_R30_DIR TOKYO_R30_LONG TOKYO_R30_SHORT TOKYO_LAND CMA_LAT CMA_LON CMA_CAT CMA_WIND CMA_PRES HKO_LAT HKO_LON HKO_CAT HKO_WIND HKO_PRES NEWDELHI_LAT NEWDELHI_LON NEWDELHI_GRADE NEWDELHI_WIND NEWDELHI_PRES NEWDELHI_CI NEWDELHI_DP NEWDELHI_POCI REUNION_LAT REUNION_LON REUNION_TYPE REUNION_WIND REUNION_PRES REUNION_TNUM REUNION_CI REUNION_RMW REUNION_R34_NE REUNION_R34_SE REUNION_R34_SW REUNION_R34_NW REUNION_R50_NE REUNION_R50_SE REUNION_R50_SW REUNION_R50_NW REUNION_R64_NE REUNION_R64_SE REUNION_R64_SW REUNION_R64_NW BOM_LAT BOM_LON BOM_TYPE BOM_WIND BOM_PRES BOM_TNUM BOM_CI BOM_RMW BOM_R34_NE BOM_R34_SE BOM_R34_SW BOM_R34_NW BOM_R50_NE BOM_R50_SE BOM_R50_SW BOM_R50_NW BOM_R64_NE BOM_R64_SE BOM_R64_SW BOM_R64_NW BOM_ROCI BOM_POCI BOM_EYE BOM_POS_METHOD BOM_PRES_METHOD NADI_LAT NADI_LON NADI_CAT NADI_WIND NADI_PRES WELLINGTON_LAT WELLINGTON_LON WELLINGTON_WIND WELLINGTON_PRES DS824_LAT DS824_LON DS824_STAGE DS824_WIND DS824_PRES TD9636_LAT TD9636_LON TD9636_STAGE TD9636_WIND TD9636_PRES TD9635_LAT TD9635_LON TD9635_WIND TD9635_PRES TD9635_ROCI NEUMANN_LAT NEUMANN_LON NEUMANN_CLASS NEUMANN_WIND NEUMANN_PRES MLC_LAT MLC_LON MLC_CLASS MLC_WIND MLC_PRES USA_GUST BOM_GUST BOM_GUST_PER REUNION_GUST REUNION_GUST_PER USA_SEAHGT USA_SEARAD_NE USA_SEARAD_SE USA_SEARAD_SW USA_SEARAD_NW STORM_SPEED STORM_DIR
1941254N27273 1941 56 NA GM NOT_NAMED 1941-09-11 00:00:00 TS 27.1000 -86.7000 25 hurdat_atl main 316 294 O_____________ hurdat_atl AL011941 27.1000 -86.7000 TD 25 -1 5 304
1941254N27273 1941 56 NA GM NOT_NAMED 1941-09-11 03:00:00 TS 27.2501 -86.9474 main 287 257 P_____________ AL011941 27.2501 -86.9474 TD 27 -1 5 304
1941254N27273 1941 56 NA GM NOT_NAMED 1941-09-11 06:00:00 TS 27.4000 -87.2000 30 hurdat_atl main 257 236 O_____________ hurdat_atl AL011941 27.4000 -87.2000 TD 30 -1 5 304
1941254N27273 1941 56 NA GM NOT_NAMED 1941-09-11 09:00:00 TS 27.5500 -87.4575 main 229 199 P_____________ AL011941 27.5500 -87.4575 TD 32 -1 5 304
1941254N27273 1941 56 NA GM NOT_NAMED 1941-09-11 12:00:00 TS 27.7000 -87.7000 35 hurdat_atl main 199 178 O_____________ hurdat_atl AL011941 27.7000 -87.7000 TS 35 0 5 307
1941254N27273 1941 56 NA GM NOT_NAMED 1941-09-11 15:00:00 TS 27.8499 -87.9076 main 178 148 P_____________ AL011941 27.8499 -87.9076 TS 35 0 5 310
1941254N27273 1941 56 NA GM NOT_NAMED 1941-09-11 18:00:00 TS 28.0000 -88.1000 35 hurdat_atl main 148 118 O_____________ hurdat_atl AL011941 28.0000 -88.1000 TS 35 0 5 312
1941254N27273 1941 56 NA GM NOT_NAMED 1941-09-11 21:00:00 TS 28.1725 -88.3074 main 118 97 P_____________ AL011941 28.1725 -88.3074 TS 37 0 5 311
1941254N27273 1941 56 NA GM NOT_NAMED 1941-09-12 00:00:00 TS 28.3000 -88.5000 40 hurdat_atl main 97 92 O_____________ hurdat_atl AL011941 28.3000 -88.5000 TS 40 0 3 298
1941254N27273 1941 56 NA GM NOT_NAMED 1941-09-12 03:00:00 TS 28.3375 -88.6576 main 87 83 P_____________ AL011941 28.3375 -88.6576 TS 40 0 3 270
1941254N27273 1941 56 NA GM NOT_NAMED 1941-09-12 06:00:00 TS 28.3000 -88.8000 40 1001 hurdat_atl main 83 80 O_____________ hurdat_atl AL011941 28.3000 -88.8000 TS 40 1001 0 3 244
1941254N27273 1941 56 NA GM NOT_NAMED 1941-09-12 09:00:00 TS 28.2075 -88.9576 main 89 89 P_____________ AL011941 28.2075 -88.9576 TS 42 0 3 233
1941254N27273 1941 56 NA GM NOT_NAMED 1941-09-12 12:00:00 TS 28.1000 -89.1000 45 hurdat_atl main 100 100 O_____________ hurdat_atl AL011941 28.1000 -89.1000 TS 45 0 3 232
1941254N27273 1941 56 NA GM NOT_NAMED 1941-09-12 15:00:00 TS 28.0425 -89.1999 main 112 112 P_____________ AL011941 28.0425 -89.1999 TS 47 0 2 240
1941254N27273 1941 56 NA GM NOT_NAMED 1941-09-12 18:00:00 TS 28.0000 -89.3000 50 hurdat_atl main 113 113 O_____________ hurdat_atl AL011941 28.0000 -89.3000 TS 50 0 2 243
1941254N27273 1941 56 NA GM NOT_NAMED 1941-09-12 21:00:00 TS 27.9350 -89.4426 main 126 126 P_____________ AL011941 27.9350 -89.4426 TS 50 0 3 249
1941254N27273 1941 56 NA GM NOT_NAMED 1941-09-13 00:00:00 TS 27.9000 -89.6000 50 hurdat_atl main 132 132 O_____________ hurdat_atl AL011941 27.9000 -89.6000 TS 50 0 3 270
1941254N27273 1941 56 NA GM NOT_NAMED 1941-09-13 03:00:00 TS 27.9350 -89.7500 main 136 124 P_____________ AL011941 27.9350 -89.7500 TS 47 0 3 291
1941254N27273 1941 56 NA GM NOT_NAMED 1941-09-13 06:00:00 TS 28.0000 -89.9000 45 hurdat_atl main 124 123 O_____________ hurdat_atl AL011941 28.0000 -89.9000 TS 45 0 3 294
1941254N27273 1941 56 NA GM NOT_NAMED 1941-09-13 09:00:00 TS 28.0424 -90.0276 main 123 111 P_____________ AL011941 28.0424 -90.0276 TS 45 0 3 291
1941254N27273 1941 56 NA GM NOT_NAMED 1941-09-13 12:00:00 TS 28.1000 -90.2000 45 1001 hurdat_atl main 111 100 O_____________ hurdat_atl AL011941 28.1000 -90.2000 TS 45 1001 0 4 291
1941254N27273 1941 56 NA GM NOT_NAMED 1941-09-13 15:00:00 TS 28.1924 -90.4625 main 100 89 P_____________ AL011941 28.1924 -90.4625 TS 42 0 6 291
1941254N27273 1941 56 NA GM NOT_NAMED 1941-09-13 18:00:00 TS 28.3000 -90.8000 40 hurdat_atl main 89 78 O_____________ hurdat_atl AL011941 28.3000 -90.8000 TS 40 0 7 288
1941254N27273 1941 56 NA GM NOT_NAMED 1941-09-13 21:00:00 TS 28.3999 -91.1776 main 83 82 P_____________ AL011941 28.3999 -91.1776 TS 40 0 7 286
1941254N27273 1941 56 NA GM NOT_NAMED 1941-09-14 00:00:00 TS 28.5000 -91.6000 40 hurdat_atl main 92 92 O_____________ hurdat_atl AL011941 28.5000 -91.6000 TS 40 0 8 283
1941254N27273 1941 56 NA GM NOT_NAMED 1941-09-14 03:00:00 TS 28.5851 -92.0577 main 102 89 P_____________ AL011941 28.5851 -92.0577 TS 40 0 8 284
1941254N27273 1941 56 NA GM NOT_NAMED 1941-09-14 06:00:00 TS 28.7000 -92.5000 40 1002 hurdat_atl main 91 80 O_____________ hurdat_atl AL011941 28.7000 -92.5000 TS 40 1002 0 8 293
1941254N27273 1941 56 NA GM NOT_NAMED 1941-09-14 09:00:00 TS 28.8924 -92.8874 main 83 69 P_____________ AL011941 28.8924 -92.8874 TS 37 1003 0 7 303
1941254N27273 1941 56 NA GM NOT_NAMED 1941-09-14 12:00:00 TS 29.1000 -93.2000 35 1004 hurdat_atl main 72 55 O_____________ hurdat_atl AL011941 29.1000 -93.2000 TS 35 1004 0 6 308
1941254N27273 1941 56 NA GM NOT_NAMED 1941-09-14 15:00:00 TS 29.2648 -93.4227 main 55 38 P_____________ AL011941 29.2648 -93.4227 TS 32 1004 -1 5 311
1941254N27273 1941 56 NA GM NOT_NAMED 1941-09-14 18:00:00 TS 29.4000 -93.6000 30 hurdat_atl main 38 22 I_____________ hurdat_atl AL011941 29.4000 -93.6000 TD 30 1005 -1 4 307
1941254N27273 1941 56 NA GM NOT_NAMED 1941-09-14 21:00:00 TS 29.5150 -93.8075 main 22 11 P_____________ AL011941 29.5150 -93.8075 TD 30 1005 -1 4 300
1941254N27273 1941 56 NA GM NOT_NAMED 1941-09-15 00:00:00 TS 29.6000 -94.0000 30 1006 hurdat_atl main 11 0 O_____________ hurdat_atl AL011941 29.6000 -94.0000 TD 30 1006 -1 3 295
1941254N27273 1941 56 NA GM NOT_NAMED 1941-09-15 03:00:00 TS 29.6575 -94.1651 main 0 0 P_____________ AL011941 29.6575 -94.1651 TD 30 1006 -1 3 291
1941254N27273 1941 56 NA NA NOT_NAMED 1941-09-15 06:00:00 TS 29.7000 -94.3000 30 1007 hurdat_atl main 0 0 O_____________ hurdat_atl AL011941 29.7000 -94.3000 TD 30 1007 -1 2 295
1941254N27273 1941 56 NA NA NOT_NAMED 1941-09-15 09:00:00 TS 29.7499 -94.3925 main 0 0 P_____________ AL011941 29.7499 -94.3925 TD 27 1007 -1 2 300
1941254N27273 1941 56 NA NA NOT_NAMED 1941-09-15 12:00:00 TS 29.8000 -94.5000 25 1007 hurdat_atl main 0 0 O_____________ hurdat_atl AL011941 29.8000 -94.5000 TD 25 1007 -1 3 296
1941254N27273 1941 56 NA NA NOT_NAMED 1941-09-15 15:00:00 TS 29.8649 -94.6624 main 0 0 P_____________ AL011941 29.8649 -94.6624 TD 25 1007 -1 4 286
1941254N27273 1941 56 NA NA NOT_NAMED 1941-09-15 18:00:00 TS 29.9000 -94.9000 25 1007 hurdat_atl main 0 0 O_____________ hurdat_atl AL011941 29.9000 -94.9000 TD 25 1007 -1 5 269
1941254N27273 1941 56 NA NA NOT_NAMED 1941-09-15 21:00:00 TS 29.8576 -95.2277 main 0 0 P_____________ AL011941 29.8576 -95.2277 TD 25 1007 -1 6 261
1941254N27273 1941 56 NA NA NOT_NAMED 1941-09-16 00:00:00 TS 29.8000 -95.6000 25 1007 hurdat_atl main 0 0 O_____________ hurdat_atl AL011941 29.8000 -95.6000 TD 25 1007 -1 6 263
1941254N27273 1941 56 NA NA NOT_NAMED 1941-09-16 03:00:00 TS 29.7851 -95.9573 main 0 0 P_____________ AL011941 29.7851 -95.9573 TD 22 -1 6 270
1941254N27273 1941 56 NA NA NOT_NAMED 1941-09-16 06:00:00 TS 29.8000 -96.3000 20 hurdat_atl main 0 O_____________ hurdat_atl AL011941 29.8000 -96.3000 TD 20 -1 6 273

About IBTrACS Database

This database is a web-friendly format of International Best Track Archive for Climate Stewardship (IBTrACS), a global best track data archive curated by NOAA dating back to 1842.

Updated: 2021-11-26